Time;durP1;ratioP1;P1;durP2;ratioP2;P2;SDS_P1;SDS_P2;PMS_P1;PMS_P2;Temp;Humidity;BMP_temperature;BMP_pressure;BME280_temperature;BME280_humidity;BME280_pressure;Samples;Min_cycle;Max_cycle;Signal;HPM_P1;HPM_P2
2021/10/02 00:01:40;;;;;;;6.38;3.08;;;;;;;7.58;80.85;100673.66;5003500;28;20524;-76
2021/10/02 00:34:19;;;;;;;5.43;3.25;;;;;;;7.50;81.86;100656.09;5002734;28;20045;-76
2021/10/02 00:44:56;;;;;;;8.73;3.28;;;;;;;7.58;81.50;100650.00;5001785;28;20096;-76
2021/10/02 00:47:23;;;;;;;4.85;2.85;;;;;;;7.57;81.84;100642.09;5016803;28;20034;-76
2021/10/02 00:49:51;;;;;;;5.82;2.88;;;;;;;7.58;81.49;100634.25;5004674;28;20125;-76
2021/10/02 00:52:18;;;;;;;7.97;3.38;;;;;;;7.58;81.88;100638.63;5005434;28;20036;-76
2021/10/02 00:54:45;;;;;;;5.22;3.10;;;;;;;7.58;82.32;100633.38;5002180;28;20074;-76
2021/10/02 00:57:11;;;;;;;5.00;3.20;;;;;;;7.60;81.98;100636.91;5004421;28;20100;-76
2021/10/02 00:59:37;;;;;;;5.45;2.80;;;;;;;7.62;81.78;100629.88;5002794;28;20030;-76
2021/10/02 01:02:23;;;;;;;5.30;3.22;;;;;;;7.63;82.05;100629.91;5003639;28;20084;-76
2021/10/02 01:05:04;;;;;;;5.82;3.63;;;;;;;7.65;82.43;100629.91;5001821;28;20038;-76
2021/10/02 01:07:35;;;;;;;5.30;2.92;;;;;;;7.66;81.95;100626.44;5002870;28;20034;-76
2021/10/02 01:10:16;;;;;;;5.95;3.22;;;;;;;7.65;81.99;100619.41;5004190;28;20083;-77
2021/10/02 01:12:56;;;;;;;5.43;3.30;;;;;;;7.67;82.04;100625.56;5001542;28;20034;-76
2021/10/02 01:15:43;;;;;;;5.28;3.35;;;;;;;7.71;81.86;100623.84;5002789;28;20034;-76
2021/10/02 01:18:23;;;;;;;4.75;2.92;;;;;;;7.70;82.38;100617.69;5001986;28;20104;-77
2021/10/02 01:21:01;;;;;;;4.90;3.17;;;;;;;7.70;82.25;100612.44;5002385;28;20038;-77
2021/10/02 01:23:37;;;;;;;5.85;3.45;;;;;;;7.73;82.31;100612.47;5000668;28;20042;-77
2021/10/02 01:26:22;;;;;;;5.63;3.20;;;;;;;7.74;81.86;100614.22;5001760;28;20481;-77
2021/10/02 01:28:54;;;;;;;6.35;2.92;;;;;;;7.75;81.76;100610.72;5001555;28;20042;-76
2021/10/02 01:31:30;;;;;;;;;;;;;;;7.70;82.51;100599.28;5005155;28;20034;-76
2021/10/02 01:34:04;;;;;;;4.82;2.95;;;;;;;7.73;81.57;100599.34;5001247;28;19914;-76
2021/10/02 01:47:41;;;;;;;4.85;3.00;;;;;;;7.74;82.24;100582.69;5000714;28;20045;-76
2021/10/02 01:50:08;;;;;;;5.28;2.95;;;;;;;7.73;81.97;100583.59;5000585;28;20042;-76
2021/10/02 01:52:40;;;;;;;5.15;2.80;;;;;;;7.74;81.65;100595.84;5000240;28;20038;-76
2021/10/02 01:55:08;;;;;;;4.87;3.00;;;;;;;7.68;81.51;100583.53;5000883;28;20034;-77
2021/10/02 01:57:39;;;;;;;6.45;3.55;;;;;;;7.67;82.10;100587.03;5003773;28;20034;-77
2021/10/02 02:00:06;;;;;;;7.65;3.53;;;;;;;7.66;82.98;100589.66;5001164;28;20034;-77
2021/10/02 02:02:34;;;;;;;5.43;3.10;;;;;;;7.61;82.46;100594.00;5003114;28;20040;-77
2021/10/02 02:05:04;;;;;;;5.85;3.17;;;;;;;7.62;82.57;100591.41;5000878;28;20038;-77
2021/10/02 02:07:32;;;;;;;4.68;2.95;;;;;;;7.63;82.39;100589.66;5003522;28;20418;-77
2021/10/02 02:09:59;;;;;;;8.68;3.33;;;;;;;7.62;83.02;100583.50;5006083;28;20069;-77
2021/10/02 02:12:32;;;;;;;6.30;3.80;;;;;;;7.60;82.68;100590.50;5000814;28;20088;-77
2021/10/02 02:15:01;;;;;;;5.53;3.35;;;;;;;7.61;83.04;100591.38;5002451;28;20510;-77
2021/10/02 02:17:28;;;;;;;5.07;3.22;;;;;;;7.61;82.77;100589.63;5001729;28;20489;-77
2021/10/02 02:19:56;;;;;;;4.25;2.47;;;;;;;7.55;82.67;100584.34;5002436;28;20416;-77
2021/10/02 02:22:22;;;;;;;4.57;2.60;;;;;;;7.52;82.70;100586.03;5001429;28;20042;-77
2021/10/02 02:24:47;;;;;;;6.60;3.13;;;;;;;7.48;83.20;100585.16;5002294;28;20029;-77
2021/10/02 02:27:13;;;;;;;7.10;3.03;;;;;;;7.49;83.26;100586.03;5000893;28;20421;-77
2021/10/02 02:29:38;;;;;;;4.80;2.95;;;;;;;7.49;83.30;100579.03;5003244;28;20110;-77
2021/10/02 02:32:04;;;;;;;6.50;3.10;;;;;;;7.45;83.28;100586.00;5000045;28;20053;-77
2021/10/02 02:34:29;;;;;;;6.07;3.35;;;;;;;7.47;83.39;100581.66;5003455;28;20052;-77
2021/10/02 02:36:56;;;;;;;7.25;3.28;;;;;;;7.51;83.71;100577.28;5000080;28;20046;-76
2021/10/02 02:39:22;;;;;;;9.48;3.70;;;;;;;7.49;83.52;100579.03;5003280;28;20058;-77
2021/10/02 02:41:48;;;;;;;6.22;3.63;;;;;;;7.43;83.80;100578.97;5000317;28;20773;-77
2021/10/02 02:44:13;;;;;;;5.15;3.08;;;;;;;7.37;83.36;100577.19;5002310;28;20045;-76
2021/10/02 02:46:40;;;;;;;4.85;2.97;;;;;;;7.30;83.58;100577.13;5002991;28;20068;-76
2021/10/02 02:49:20;;;;;;;4.80;3.22;;;;;;;7.29;83.57;100573.63;5002036;28;20066;-76
2021/10/02 02:51:58;;;;;;;5.53;3.35;;;;;;;7.30;83.87;100585.00;5003240;28;20034;-77
2021/10/02 02:54:36;;;;;;;7.00;3.80;;;;;;;7.34;84.76;100585.06;5004844;28;20061;-77
2021/10/02 02:57:10;;;;;;;5.65;3.67;;;;;;;7.37;84.49;100586.81;5004878;28;20081;-77
2021/10/02 02:59:40;;;;;;;5.38;3.20;;;;;;;7.44;84.20;100592.13;5007116;28;20400;-77
2021/10/02 03:02:06;;;;;;;4.38;2.90;;;;;;;7.43;84.38;100593.00;5004566;28;20045;-82
2021/10/02 03:04:34;;;;;;;6.05;3.30;;;;;;;7.44;84.05;100586.88;5003521;28;20491;-77
2021/10/02 03:07:03;;;;;;;8.52;3.38;;;;;;;7.45;84.52;100586.00;5006850;28;20038;-77
2021/10/02 03:09:35;;;;;;;5.88;3.15;;;;;;;7.48;84.47;100590.41;5003732;28;20043;-77
2021/10/02 03:12:01;;;;;;;4.55;2.92;;;;;;;7.50;84.32;100588.66;5003672;28;20485;-76
2021/10/02 03:14:29;;;;;;;5.63;3.75;;;;;;;7.55;84.84;100588.72;5003270;28;20030;-76
2021/10/02 03:16:55;;;;;;;5.03;3.50;;;;;;;7.58;84.75;100584.34;5003139;28;20129;-76
2021/10/02 03:19:21;;;;;;;4.32;2.65;;;;;;;7.65;84.59;100578.28;5006889;28;20040;-76
2021/10/02 03:21:50;;;;;;;6.82;3.17;;;;;;;7.71;84.58;100589.69;5010351;28;20117;-76
2021/10/02 03:24:16;;;;;;;5.45;3.60;;;;;;;7.77;84.38;100581.84;5010511;28;20037;-76
2021/10/02 03:26:42;;;;;;;5.13;3.47;;;;;;;7.76;83.46;100586.22;5002592;28;20050;-76
2021/10/02 03:29:08;;;;;;;9.52;3.35;;;;;;;7.70;83.42;100586.16;5008497;28;20042;-76
2021/10/02 03:31:34;;;;;;;4.70;2.50;;;;;;;7.67;83.42;100586.16;5007840;28;20041;-76
2021/10/02 03:34:01;;;;;;;7.10;3.75;;;;;;;7.68;83.02;100582.69;5004308;28;20112;-76
2021/10/02 03:36:27;;;;;;;6.43;3.35;;;;;;;7.70;83.45;100583.53;5005033;28;20035;-76
2021/10/02 03:38:53;;;;;;;8.77;3.30;;;;;;;7.76;82.92;100585.34;5003428;28;20037;-76
2021/10/02 03:41:19;;;;;;;6.97;3.25;;;;;;;7.81;83.17;100588.88;5004532;28;20049;-76
2021/10/02 03:43:44;;;;;;;4.78;3.03;;;;;;;7.84;82.88;100584.50;5007365;28;20033;-77
2021/10/02 03:46:09;;;;;;;5.72;3.00;;;;;;;7.86;83.00;100587.16;5005545;28;20435;-77
2021/10/02 03:48:35;;;;;;;6.45;4.07;;;;;;;7.86;83.07;100589.78;5003474;28;20085;-76
2021/10/02 03:51:00;;;;;;;6.15;3.38;;;;;;;7.87;83.01;100589.78;5006241;28;20461;-76
2021/10/02 03:53:28;;;;;;;5.45;3.38;;;;;;;7.91;82.63;100593.28;5002577;28;20440;-76
2021/10/02 03:55:54;;;;;;;6.20;3.95;;;;;;;7.90;83.27;100584.53;5002782;28;20113;-76
2021/10/02 03:58:20;;;;;;;6.75;3.30;;;;;;;7.92;83.21;100591.56;5006304;28;20037;-76
2021/10/02 04:00:45;;;;;;;6.00;3.30;;;;;;;7.93;83.21;100590.69;5006377;28;20456;-76
2021/10/02 04:03:10;;;;;;;7.22;3.78;;;;;;;7.95;83.40;100591.59;5016959;28;20042;-76
2021/10/02 04:05:36;;;;;;;6.85;3.50;;;;;;;7.95;83.48;100594.22;5004970;28;20049;-75
2021/10/02 04:08:01;;;;;;;4.65;3.15;;;;;;;7.96;83.16;100591.56;5003854;28;20030;-77
2021/10/02 04:10:26;;;;;;;6.60;3.97;;;;;;;7.92;83.56;100591.56;5004344;28;20416;-77
2021/10/02 04:12:52;;;;;;;6.25;4.10;;;;;;;7.92;83.32;100586.31;5004323;28;20406;-77
2021/10/02 04:15:17;;;;;;;4.85;3.33;;;;;;;7.90;84.11;100587.16;5003355;28;20118;-77
2021/10/02 04:17:42;;;;;;;6.25;3.47;;;;;;;7.97;84.09;100579.34;5005292;28;20510;-76
2021/10/02 04:20:08;;;;;;;4.90;3.35;;;;;;;8.02;83.34;100580.25;5002591;28;20516;-77
2021/10/02 04:22:33;;;;;;;4.88;3.35;;;;;;;8.08;83.34;100589.03;5005503;28;20038;-77
2021/10/02 04:24:59;;;;;;;5.28;3.63;;;;;;;8.09;83.66;100584.63;5002095;28;20047;-76
2021/10/02 04:27:24;;;;;;;5.22;2.70;;;;;;;8.13;83.03;100583.78;5017301;28;20046;-76
2021/10/02 04:29:49;;;;;;;5.75;3.30;;;;;;;8.19;82.92;100589.06;5004892;28;20040;-76
2021/10/02 04:32:15;;;;;;;5.03;3.00;;;;;;;8.21;83.03;100581.19;5002999;28;20508;-76
2021/10/02 04:34:40;;;;;;;7.15;3.42;;;;;;;8.24;83.11;100589.09;5003980;28;20042;-76
2021/10/02 04:37:06;;;;;;;5.68;3.80;;;;;;;8.20;82.38;100584.69;5002525;28;20053;-76
2021/10/02 04:39:31;;;;;;;5.47;3.53;;;;;;;8.20;82.98;100582.97;5019294;28;20037;-76
2021/10/02 04:41:57;;;;;;;6.80;3.30;;;;;;;8.19;83.35;100583.81;5004250;28;20034;-76
2021/10/02 04:44:23;;;;;;;6.30;4.22;;;;;;;8.16;83.39;100586.44;5002495;28;20129;-76
2021/10/02 04:46:48;;;;;;;5.38;4.15;;;;;;;8.18;83.55;100579.44;5004565;28;20034;-77
2021/10/02 04:49:14;;;;;;;5.53;3.85;;;;;;;8.22;83.48;100581.19;5002046;28;20042;-76
2021/10/02 04:51:40;;;;;;;7.03;3.60;;;;;;;8.27;83.36;100578.59;5005234;28;20030;-76
2021/10/02 04:54:05;;;;;;;6.30;4.18;;;;;;;8.28;82.74;100578.59;5001464;28;20061;-76
2021/10/02 04:56:32;;;;;;;5.80;3.60;;;;;;;8.28;82.77;100581.22;5004897;28;20041;-77
2021/10/02 04:58:57;;;;;;;6.88;4.35;;;;;;;8.26;82.78;100579.47;5002087;28;20057;-76
2021/10/02 05:01:23;;;;;;;6.60;3.35;;;;;;;8.23;82.52;100575.06;5004154;28;20042;-77
2021/10/02 05:03:48;;;;;;;5.63;3.35;;;;;;;8.22;82.62;100575.94;5001760;28;20077;-78
2021/10/02 05:06:13;;;;;;;5.80;3.70;;;;;;;8.17;82.96;100580.28;5003223;28;20529;-78
2021/10/02 05:08:39;;;;;;;7.80;4.28;;;;;;;8.16;82.97;100575.03;5010551;28;20025;-78
2021/10/02 05:11:05;;;;;;;5.40;3.67;;;;;;;8.11;82.90;100568.00;5003807;28;20504;-77
2021/10/02 05:13:32;;;;;;;6.28;4.00;;;;;;;8.12;83.17;100566.25;4997428;28;20038;-77
2021/10/02 05:15:58;;;;;;;6.38;3.70;;;;;;;8.16;83.15;100575.03;5002395;28;20042;-78
2021/10/02 05:18:23;;;;;;;6.47;3.30;;;;;;;8.21;82.80;100575.94;5004319;28;20053;-77
2021/10/02 05:20:49;;;;;;;7.53;4.18;;;;;;;8.24;82.74;100568.94;5000403;28;20128;-77
2021/10/02 05:23:14;;;;;;;6.35;3.33;;;;;;;8.27;83.14;100578.59;5007519;28;20034;-76
2021/10/02 05:25:39;;;;;;;6.05;3.58;;;;;;;8.27;83.07;100575.94;5005936;28;20133;-78
2021/10/02 05:28:05;;;;;;;7.68;4.07;;;;;;;8.32;82.53;100576.84;5005078;28;20140;-77
2021/10/02 05:30:31;;;;;;;5.15;3.22;;;;;;;8.39;82.63;100580.41;5007524;28;20042;-78
2021/10/02 05:32:56;;;;;;;5.07;3.65;;;;;;;8.45;82.54;100585.69;5000140;28;20080;-77
2021/10/02 05:35:21;;;;;;;9.75;4.32;;;;;;;8.54;83.56;100576.09;5000577;28;20053;-77
2021/10/02 05:37:47;;;;;;;6.63;3.08;;;;;;;8.63;83.41;100569.97;5008015;28;20045;-77
2021/10/02 05:40:13;;;;;;;5.68;4.10;;;;;;;8.68;82.61;100578.75;5005936;28;20040;-77
2021/10/02 05:42:38;;;;;;;6.28;3.75;;;;;;;8.71;82.17;100578.75;5005175;28;20034;-77
2021/10/02 05:45:04;;;;;;;9.25;4.28;;;;;;;8.71;82.14;100576.13;5003804;28;20040;-77
2021/10/02 05:47:29;;;;;;;6.13;4.00;;;;;;;8.69;82.11;100579.63;5006502;28;20026;-77
2021/10/02 05:49:55;;;;;;;6.97;3.83;;;;;;;8.74;82.64;100578.75;5008778;28;20475;-77
2021/10/02 05:52:20;;;;;;;5.60;3.55;;;;;;;8.75;82.46;100580.53;5002633;28;20037;-77
2021/10/02 05:54:45;;;;;;;5.40;3.72;;;;;;;8.82;82.78;100588.44;5003854;28;20459;-77
2021/10/02 05:57:11;;;;;;;5.80;4.10;;;;;;;8.86;82.31;100583.19;5000823;28;20133;-77
2021/10/02 05:59:36;;;;;;;6.90;5.13;;;;;;;8.87;83.19;100581.41;5003353;28;20112;-77
2021/10/02 06:02:02;;;;;;;6.13;3.78;;;;;;;8.92;83.40;100600.72;5001420;28;20124;-77
2021/10/02 06:04:27;;;;;;;6.32;4.25;;;;;;;9.05;82.74;100597.25;5002207;28;20030;-77
2021/10/02 06:06:52;;;;;;;6.93;4.50;;;;;;;9.11;83.27;100585.84;4999165;28;20046;-77
2021/10/02 06:09:18;;;;;;;7.15;5.13;;;;;;;9.22;82.75;100594.59;5006231;28;20041;-77
2021/10/02 06:11:44;;;;;;;9.40;5.30;;;;;;;9.38;82.56;100596.38;5004036;28;20113;-78
2021/10/02 06:14:09;;;;;;;7.00;4.63;;;;;;;9.51;81.80;100597.25;5007425;28;20045;-78
2021/10/02 06:16:36;;;;;;;6.72;4.72;;;;;;;9.57;81.93;100597.25;5017427;28;20038;-78
2021/10/02 06:19:02;;;;;;;9.23;4.90;;;;;;;9.61;82.26;100598.09;5009023;28;20088;-81
2021/10/02 06:21:27;;;;;;;7.30;4.65;;;;;;;9.71;82.60;100594.59;5014659;28;20045;-82
2021/10/02 06:23:58;;;;;;;8.95;4.95;;;;;;;9.89;82.78;100596.31;5012086;28;20034;-81
2021/10/02 06:26:23;;;;;;;7.20;4.88;;;;;;;9.99;82.57;100595.41;5002759;28;20117;-82
2021/10/02 06:28:48;;;;;;;7.47;4.28;;;;;;;10.12;82.13;100598.03;5007020;28;20073;-82
2021/10/02 06:31:14;;;;;;;8.52;4.95;;;;;;;10.28;82.27;100597.09;5004444;28;20225;-81
2021/10/02 06:33:39;;;;;;;7.43;5.38;;;;;;;10.46;81.36;100602.31;5006248;28;20128;-83
2021/10/02 06:36:04;;;;;;;6.10;3.72;;;;;;;10.63;81.51;100610.13;5006016;28;20038;-81
2021/10/02 06:38:30;;;;;;;7.07;4.82;;;;;;;10.83;80.89;100611.78;5006119;28;20041;-82
2021/10/02 06:40:55;;;;;;;8.55;4.68;;;;;;;10.91;81.01;100623.19;5005738;28;20030;-83
2021/10/02 06:43:20;;;;;;;5.65;4.65;;;;;;;11.08;81.20;100617.78;5005790;28;20500;-82
2021/10/02 06:45:46;;;;;;;7.43;4.25;;;;;;;11.27;80.16;100618.56;5005556;28;20477;-82
2021/10/02 06:48:11;;;;;;;8.82;4.03;;;;;;;11.42;80.16;100618.41;5007150;28;20077;-82
2021/10/02 06:50:37;;;;;;;6.70;3.90;;;;;;;11.60;79.91;100622.66;5004883;28;20333;-82
2021/10/02 06:53:02;;;;;;;7.20;4.68;;;;;;;11.78;79.80;100625.13;5007428;28;20116;-81
2021/10/02 06:55:28;;;;;;;5.47;3.72;;;;;;;12.00;79.54;100624.97;5004291;28;20058;-82
2021/10/02 06:57:53;;;;;;;6.50;4.25;;;;;;;12.15;78.35;100622.13;5007275;28;20068;-81
2021/10/02 07:00:18;;;;;;;6.45;3.80;;;;;;;12.33;78.61;100623.69;5005096;28;20457;-81
2021/10/02 07:02:45;;;;;;;7.65;4.03;;;;;;;12.49;77.84;100614.66;5006515;28;20046;-81
2021/10/02 07:05:12;;;;;;;7.03;4.50;;;;;;;12.65;77.52;100612.72;5005301;28;20068;-81
2021/10/02 07:07:40;;;;;;;6.00;3.90;;;;;;;12.75;77.61;100612.59;5005444;28;20473;-82
2021/10/02 07:10:07;;;;;;;6.75;3.95;;;;;;;12.87;76.86;100617.72;5008064;28;20045;-82
2021/10/02 07:12:32;;;;;;;7.95;3.95;;;;;;;13.09;76.41;100613.84;5004722;28;20477;-82
2021/10/02 07:14:58;;;;;;;5.10;3.60;;;;;;;13.26;75.78;100612.72;5003834;28;20069;-81
2021/10/02 07:17:23;;;;;;;7.90;3.78;;;;;;;13.49;75.32;100602.66;5008021;28;20084;-81
2021/10/02 07:19:48;;;;;;;6.05;4.03;;;;;;;13.63;74.97;100605.06;5006059;28;20030;-82
2021/10/02 07:22:14;;;;;;;6.03;3.97;;;;;;;13.74;74.46;100602.22;5014871;28;20128;-82
2021/10/02 07:24:39;;;;;;;6.82;3.95;;;;;;;13.85;74.06;100589.63;5002182;28;20039;-82
2021/10/02 07:27:05;;;;;;;8.57;4.05;;;;;;;13.96;73.14;100600.94;5010062;28;20030;-82
2021/10/02 07:29:30;;;;;;;5.63;3.70;;;;;;;14.12;73.27;100592.66;5013049;28;20037;-82
2021/10/02 07:31:56;;;;;;;20.58;5.43;;;;;;;14.21;72.89;100593.34;5005921;28;20061;-82
2021/10/02 07:34:22;;;;;;;6.05;3.42;;;;;;;14.29;72.77;100594.97;5002637;28;20048;-82
2021/10/02 07:36:47;;;;;;;6.53;3.97;;;;;;;14.40;72.87;100601.81;5006286;28;20041;-80
2021/10/02 07:39:13;;;;;;;5.75;3.42;;;;;;;14.55;72.60;100605.97;5013979;28;20041;-81
2021/10/02 07:41:41;;;;;;;6.47;3.70;;;;;;;14.65;72.65;100596.03;5012692;28;20120;-82
2021/10/02 07:44:10;;;;;;;6.78;3.80;;;;;;;14.77;72.09;100593.06;5007205;28;20563;-83
2021/10/02 07:46:37;;;;;;;7.50;3.63;;;;;;;14.92;71.55;100602.47;5009036;28;20057;-82
2021/10/02 07:49:03;;;;;;;6.70;3.88;;;;;;;15.03;71.24;100595.13;5008316;28;20104;-82
2021/10/02 07:51:28;;;;;;;7.32;3.83;;;;;;;15.15;70.44;100580.69;5010619;28;20370;-78
2021/10/02 07:53:56;;;;;;;5.93;3.63;;;;;;;15.28;69.85;100584.78;5013404;28;20045;-82
2021/10/02 07:56:22;;;;;;;6.30;3.40;;;;;;;15.34;69.24;100594.41;5009974;28;20083;-83
2021/10/02 07:58:49;;;;;;;5.68;3.72;;;;;;;15.52;68.90;100593.06;5006557;28;20487;-82
2021/10/02 08:01:15;;;;;;;7.22;3.45;;;;;;;15.64;68.28;100582.13;5007123;28;20046;-82
2021/10/02 08:03:41;;;;;;;6.68;3.45;;;;;;;15.70;67.91;100576.66;5008606;28;20168;-82
2021/10/02 08:06:06;;;;;;;5.28;2.97;;;;;;;15.73;67.41;100576.56;5004951;28;20696;-83
2021/10/02 08:08:34;;;;;;;5.93;3.35;;;;;;;15.81;67.35;100578.16;5017698;28;20448;-81
2021/10/02 08:10:59;;;;;;;4.80;2.88;;;;;;;15.92;67.50;100581.41;5007695;28;20560;-83
2021/10/02 08:13:24;;;;;;;5.70;3.50;;;;;;;15.93;67.04;100573.38;5007926;28;20040;-81
2021/10/02 08:15:58;;;;;;;5.88;3.50;;;;;;;15.95;66.72;100575.97;5018285;28;20416;-82
2021/10/02 08:18:25;;;;;;;6.85;3.47;;;;;;;15.83;67.04;100571.88;5011016;28;20080;-80
2021/10/02 08:20:54;;;;;;;5.95;3.28;;;;;;;15.88;66.62;100569.97;5011237;28;20029;-85
2021/10/02 08:23:23;;;;;;;7.00;3.75;;;;;;;16.05;66.70;100566.81;5009967;28;20116;-78
2021/10/02 08:25:50;;;;;;;4.93;3.35;;;;;;;16.05;66.64;100568.63;5011304;28;20065;-82
2021/10/02 08:28:17;;;;;;;4.32;2.90;;;;;;;16.08;66.58;100561.41;5011678;28;20733;-82
2021/10/02 08:30:47;;;;;;;4.63;3.10;;;;;;;16.05;66.54;100560.63;5014473;28;20037;-81
2021/10/02 08:33:13;;;;;;;5.18;3.40;;;;;;;16.04;66.68;100557.09;5014416;28;20049;-82
2021/10/02 08:35:39;;;;;;;4.97;2.83;;;;;;;16.15;66.73;100565.66;5008284;28;20046;-82
2021/10/02 08:38:06;;;;;;;5.32;2.97;;;;;;;16.21;66.09;100553.94;5008283;28;20037;-82
2021/10/02 08:40:32;;;;;;;6.97;3.80;;;;;;;16.23;65.75;100553.91;5003612;28;20483;-80
2021/10/02 08:42:58;;;;;;;7.32;4.45;;;;;;;16.33;65.73;100566.91;5004769;28;20064;-84
2021/10/02 08:45:27;;;;;;;6.80;3.15;;;;;;;16.36;65.58;100560.63;5013612;28;20488;-81
2021/10/02 08:47:53;;;;;;;5.25;3.28;;;;;;;16.49;65.73;100561.13;5013009;28;20060;-83
2021/10/02 08:50:19;;;;;;;4.97;2.75;;;;;;;16.54;65.23;100565.41;5004046;28;20073;-82
2021/10/02 08:52:46;;;;;;;4.20;2.60;;;;;;;16.61;64.97;100569.63;4990078;28;20042;-81
2021/10/02 08:55:12;;;;;;;5.57;3.60;;;;;;;16.61;64.92;100571.41;5008033;28;20054;-82
2021/10/02 08:57:38;;;;;;;6.43;3.55;;;;;;;16.55;64.79;100571.59;5005875;28;20044;-82
2021/10/02 09:00:10;;;;;;;5.38;3.15;;;;;;;16.57;65.09;100570.63;5009160;28;20042;-82
2021/10/02 09:02:36;;;;;;;6.55;3.40;;;;;;;16.63;65.15;100565.09;5006830;28;20408;-82
2021/10/02 09:05:03;;;;;;;8.07;3.92;;;;;;;16.75;64.09;100560.34;5006750;28;20037;-81
2021/10/02 09:07:29;;;;;;;8.70;3.45;;;;;;;16.88;64.57;100553.72;5004638;28;20034;-78
2021/10/02 09:09:54;;;;;;;5.75;3.30;;;;;;;16.96;63.95;100543.69;5004018;28;20516;-78
2021/10/02 09:12:21;;;;;;;7.28;3.20;;;;;;;17.00;63.49;100547.13;5004881;28;20077;-79
2021/10/02 09:14:48;;;;;;;8.57;3.53;;;;;;;17.11;63.55;100552.09;5004474;28;20113;-79
2021/10/02 09:17:14;;;;;;;7.63;3.03;;;;;;;17.09;62.85;100555.69;5006496;28;20114;-79
2021/10/02 09:19:39;;;;;;;5.78;2.85;;;;;;;17.07;62.87;100541.53;5009156;28;20430;-79
2021/10/02 09:22:08;;;;;;;5.30;2.70;;;;;;;17.16;62.41;100536.81;5007796;28;20030;-78
2021/10/02 09:24:36;;;;;;;6.30;2.92;;;;;;;17.21;62.13;100534.88;5002495;28;20079;-78
2021/10/02 09:27:01;;;;;;;7.03;3.13;;;;;;;17.14;61.41;100533.34;5010074;28;20116;-78
2021/10/02 09:29:35;;;;;;;5.35;2.90;;;;;;;17.42;61.30;100541.28;5002076;28;20065;-78
2021/10/02 09:32:01;;;;;;;5.45;3.00;;;;;;;17.69;60.99;100547.47;5004121;28;20041;-78
2021/10/02 09:34:26;;;;;;;7.22;3.10;;;;;;;18.02;60.84;100549.88;5001986;28;20033;-78
2021/10/02 09:36:52;;;;;;;5.50;2.88;;;;;;;18.19;59.70;100550.13;5019748;28;20051;-78
2021/10/02 09:39:17;;;;;;;5.68;3.05;;;;;;;18.33;58.72;100546.94;5001561;28;20456;-77
2021/10/02 09:41:51;;;;;;;6.53;3.13;;;;;;;18.47;57.55;100539.28;5003561;28;20455;-78
2021/10/02 09:44:24;;;;;;;6.45;3.53;;;;;;;18.56;58.18;100540.72;5001545;28;20065;-78
2021/10/02 09:46:50;;;;;;;6.18;2.42;;;;;;;18.64;57.77;100535.94;5003620;28;20036;-78
2021/10/02 09:49:15;;;;;;;5.88;2.70;;;;;;;18.81;58.16;100532.59;5002030;28;20034;-78
2021/10/02 09:51:43;;;;;;;4.65;2.00;;;;;;;19.18;57.00;100533.81;5004148;28;20574;-78
2021/10/02 09:54:36;;;;;;;4.93;2.47;;;;;;;19.31;56.17;100518.97;5001522;28;20037;-78
2021/10/02 09:57:12;;;;;;;8.80;3.17;;;;;;;19.51;55.09;100520.78;5001410;28;20069;-78
2021/10/02 09:59:37;;;;;;;5.65;2.40;;;;;;;19.68;54.37;100507.56;5000870;28;20042;-78
2021/10/02 10:02:20;;;;;;;4.45;2.40;;;;;;;19.74;54.75;100511.78;5004011;28;20064;-78
2021/10/02 10:04:52;;;;;;;7.38;2.80;;;;;;;19.81;54.81;100517.75;5003542;28;20066;-78
2021/10/02 10:07:18;;;;;;;4.15;2.30;;;;;;;19.83;54.42;100513.16;5002646;28;20246;-78
2021/10/02 10:10:09;;;;;;;4.97;2.13;;;;;;;19.72;53.57;100526.16;5004233;28;20037;-78
2021/10/02 10:12:37;;;;;;;5.57;2.38;;;;;;;19.72;54.65;100510.97;5006264;28;20104;-78
2021/10/02 10:15:04;;;;;;;4.05;1.90;;;;;;;19.67;55.18;100521.00;5002507;28;20121;-78
2021/10/02 10:17:31;;;;;;;8.48;2.65;;;;;;;19.62;55.24;100510.50;5002748;28;20117;-78
2021/10/02 10:20:04;;;;;;;5.28;2.28;;;;;;;19.42;54.31;100513.16;5002720;28;20424;-78
2021/10/02 10:22:30;;;;;;;4.38;1.83;;;;;;;19.49;55.09;100507.47;5003183;28;20548;-79
2021/10/02 10:25:01;;;;;;;5.93;2.13;;;;;;;19.45;53.17;100505.00;5002147;28;20042;-78
2021/10/02 10:27:30;;;;;;;3.00;1.30;;;;;;;19.65;53.54;100502.31;5015083;28;20038;-78
2021/10/02 10:30:11;;;;;;;2.75;1.30;;;;;;;19.73;52.34;100503.78;5003553;28;20042;-78
2021/10/02 10:32:55;;;;;;;4.00;1.83;;;;;;;19.85;51.36;100508.63;5000780;28;20036;-78
2021/10/02 10:35:22;;;;;;;6.95;1.40;;;;;;;20.00;51.72;100496.34;5001409;28;20044;-79
2021/10/02 10:37:47;;;;;;;5.00;1.75;;;;;;;20.10;51.35;100498.53;5004046;28;20091;-78
2021/10/02 10:40:13;;;;;;;4.50;2.03;;;;;;;20.13;50.17;100493.03;5003173;28;20042;-78
2021/10/02 10:42:38;;;;;;;3.45;1.65;;;;;;;20.14;50.89;100496.56;5001900;28;20034;-78
2021/10/02 10:45:04;;;;;;;4.00;1.50;;;;;;;20.17;50.01;100499.09;5001795;28;20038;-78
2021/10/02 10:47:31;;;;;;;4.00;1.73;;;;;;;20.23;50.28;100489.94;5003062;28;20034;-78
2021/10/02 10:49:56;;;;;;;6.40;2.10;;;;;;;20.29;49.71;100493.19;5001593;28;20046;-78
2021/10/02 10:52:23;;;;;;;4.72;1.58;;;;;;;20.23;50.03;100477.41;5003361;28;20030;-78
2021/10/02 10:54:51;;;;;;;4.47;1.73;;;;;;;20.39;49.82;100474.84;5000743;28;20038;-78
2021/10/02 10:57:37;;;;;;;3.05;1.42;;;;;;;20.34;49.96;100490.28;5003647;28;20034;-78
2021/10/02 11:00:13;;;;;;;5.63;1.70;;;;;;;20.45;50.31;100489.78;5003357;28;20099;-78
2021/10/02 11:02:51;;;;;;;2.30;1.13;;;;;;;20.33;49.25;100485.84;5000048;28;20070;-79
2021/10/02 11:05:46;;;;;;;5.75;1.60;;;;;;;20.32;49.90;100490.34;5000287;28;20050;-78
2021/10/02 11:08:12;;;;;;;3.50;1.60;;;;;;;20.47;50.03;100486.06;5001098;28;20038;-78
2021/10/02 11:10:41;;;;;;;3.40;1.63;;;;;;;20.52;50.75;100485.84;5003034;28;20038;-78
2021/10/02 11:13:07;;;;;;;6.15;3.15;;;;;;;20.53;50.20;100488.44;5004443;28;20065;-78
2021/10/02 11:15:32;;;;;;;4.07;1.60;;;;;;;20.53;49.11;100480.41;5005665;28;20480;-79
2021/10/02 11:17:58;;;;;;;4.03;1.52;;;;;;;20.60;49.39;100472.13;5004144;28;20041;-79
2021/10/02 11:20:26;;;;;;;3.78;1.50;;;;;;;20.54;49.14;100479.53;5011228;28;20132;-79
2021/10/02 11:23:39;;;;;;;4.65;2.13;;;;;;;20.77;49.75;100469.47;5003640;28;20046;-78
2021/10/02 11:26:22;;;;;;;4.00;1.63;;;;;;;21.08;49.10;100463.44;4929279;29;20039;-79
2021/10/02 11:29:08;;;;;;;4.78;1.48;;;;;;;21.22;48.34;100462.72;4936517;28;20083;-79
2021/10/02 11:31:34;;;;;;;2.35;1.38;;;;;;;21.40;47.72;100450.19;5006145;28;20065;-79
2021/10/02 11:34:02;;;;;;;2.80;1.38;;;;;;;21.50;47.38;100445.22;5005080;28;20092;-79
2021/10/02 11:36:30;;;;;;;3.67;1.55;;;;;;;21.62;46.69;100449.94;5005918;28;20034;-78
2021/10/02 11:39:13;;;;;;;4.88;1.40;;;;;;;21.61;47.05;100449.09;5007267;28;20042;-78
2021/10/02 11:41:48;;;;;;;5.10;1.70;;;;;;;21.91;46.57;100455.56;5007413;28;20146;-78
2021/10/02 11:44:32;;;;;;;2.40;1.10;;;;;;;22.16;47.01;100458.63;5004243;28;20477;-79
2021/10/02 11:47:34;;;;;;;2.63;1.25;;;;;;;22.31;46.01;100452.41;5003856;28;20488;-78
2021/10/02 11:50:12;;;;;;;;;;;;;;;22.30;46.23;100452.53;5007509;28;20531;-78
2021/10/02 11:52:43;;;;;;;2.53;1.10;;;;;;;22.39;45.17;100451.13;5004282;28;19963;-79
2021/10/02 11:55:33;;;;;;;3.40;1.13;;;;;;;22.44;45.10;100446.38;5005535;28;20049;-79
2021/10/02 11:58:11;;;;;;;4.95;1.08;;;;;;;22.75;45.77;100451.72;5002668;28;20370;-79
2021/10/02 12:00:58;;;;;;;3.42;1.30;;;;;;;22.93;44.77;100432.75;5005036;28;20111;-79
2021/10/02 12:03:32;;;;;;;2.67;1.00;;;;;;;23.02;45.19;100421.47;5003486;28;20042;-79
2021/10/02 12:06:01;;;;;;;2.28;1.13;;;;;;;23.17;44.31;100417.00;5004468;28;20072;-78
2021/10/02 12:08:28;;;;;;;4.28;1.40;;;;;;;23.38;43.97;100414.81;5004577;28;20034;-78
2021/10/02 12:11:08;;;;;;;2.95;1.30;;;;;;;23.46;42.73;100417.91;5005528;28;20061;-78
2021/10/02 12:13:37;;;;;;;3.28;1.20;;;;;;;23.60;43.16;100415.22;5007174;28;20072;-79
2021/10/02 12:16:06;;;;;;;2.75;1.25;;;;;;;23.87;43.12;100419.91;5003512;28;20493;-79
2021/10/02 12:19:06;;;;;;;2.42;1.17;;;;;;;23.92;40.81;100415.06;5006264;28;20120;-79
2021/10/02 12:21:41;;;;;;;3.42;1.30;;;;;;;23.96;40.28;100411.22;5006444;28;20444;-79
2021/10/02 12:24:35;;;;;;;2.50;1.20;;;;;;;24.12;38.88;100404.84;5017175;28;20084;-78
2021/10/02 12:27:10;;;;;;;3.38;1.42;;;;;;;23.81;37.42;100412.16;4989341;28;20149;-79